Terminal Aerodrome Forecast
Issued by NWS Sioux Falls, SD

Home | Current Version | Previous Version | Text Only | Print | Product List | Glossary On
Versions: 1 2 3 4 5 6 7 8 9 10 11 12 13
000
FTUS43 KFSD 280529
TAFHON
TAF
KHON 280529Z 2806/2906 10008KT P6SM BKN045 BKN120
     FM280900 04008KT 5SM BR OVC015
     FM281500 02007KT P6SM SCT025
     FM281800 03010KT P6SM BKN035
     FM290000 13005KT P6SM SKC=

USA.gov is the U.S. government's official web portal to all federal, state and local government web resources and services.